createdAt,value
2022-12-04T00:00:46.881Z,99.33
2022-12-04T00:03:25.570Z,99.47
2022-12-04T00:06:23.498Z,99.50
2022-12-04T00:09:04.571Z,99.45
2022-12-04T00:11:50.564Z,99.14
2022-12-04T00:14:23.843Z,99.43
2022-12-04T00:17:13.173Z,99.84
2022-12-04T00:19:41.785Z,99.28
2022-12-04T00:22:15.841Z,99.44
2022-12-04T00:24:45.459Z,99.64
2022-12-04T00:27:31.105Z,99.55
2022-12-04T00:30:04.716Z,99.86
2022-12-04T00:32:36.180Z,99.32
2022-12-04T00:35:14.423Z,99.33
2022-12-04T00:37:57.023Z,99.31
2022-12-04T00:40:36.340Z,99.29
2022-12-04T00:43:16.922Z,99.39
2022-12-04T00:45:44.231Z,99.33
2022-12-04T00:48:11.532Z,99.31
2022-12-04T00:50:39.042Z,99.57
2022-12-04T00:53:06.288Z,99.56
2022-12-04T00:55:33.561Z,99.69
2022-12-04T00:58:00.841Z,99.48
2022-12-04T01:00:28.211Z,99.35
2022-12-04T01:02:55.460Z,99.61
2022-12-04T01:05:22.996Z,99.34
2022-12-04T01:07:50.321Z,99.82
2022-12-04T01:10:17.674Z,99.84
2022-12-04T01:12:44.929Z,100.00
2022-12-04T01:15:12.470Z,100.00
2022-12-04T01:17:39.697Z,99.87
2022-12-04T01:20:07.247Z,100.00
2022-12-04T01:22:34.490Z,100.00
2022-12-04T01:25:01.905Z,100.00
2022-12-04T01:27:29.114Z,100.00
2022-12-04T01:29:56.640Z,100.00
2022-12-04T01:32:24.179Z,100.00
2022-12-04T01:34:51.495Z,100.00
2022-12-04T01:37:18.981Z,100.00
2022-12-04T01:39:46.240Z,100.00
2022-12-04T01:42:15.640Z,100.00
2022-12-04T01:44:44.217Z,100.00
2022-12-04T01:47:12.202Z,100.00
2022-12-04T01:49:46.558Z,100.00
2022-12-04T01:52:20.161Z,100.00
2022-12-04T01:54:52.074Z,100.00
2022-12-04T01:57:22.471Z,100.00
2022-12-04T01:59:50.850Z,100.00
2022-12-04T02:02:22.591Z,100.00
2022-12-04T02:04:50.378Z,100.00
2022-12-04T02:07:17.605Z,100.00
2022-12-04T02:09:45.730Z,100.00
2022-12-04T02:12:50.533Z,100.00
2022-12-04T02:15:25.627Z,100.00
2022-12-04T02:18:11.829Z,100.00
2022-12-04T02:20:51.467Z,100.00
2022-12-04T02:23:40.303Z,100.00
2022-12-04T02:26:30.365Z,100.00
2022-12-04T02:29:05.187Z,100.00
2022-12-04T02:31:39.438Z,100.00
2022-12-04T02:34:29.034Z,100.00
2022-12-04T02:37:17.122Z,100.00
2022-12-04T02:40:13.917Z,100.00
2022-12-04T02:43:03.950Z,100.00
2022-12-04T02:45:34.199Z,100.00
2022-12-04T02:48:04.159Z,100.00
2022-12-04T02:50:31.882Z,100.00
2022-12-04T02:53:12.190Z,100.00
2022-12-04T02:55:53.877Z,100.00
2022-12-04T02:58:32.823Z,100.00
2022-12-04T03:01:02.162Z,100.00
2022-12-04T03:03:30.307Z,100.00
2022-12-04T03:06:08.368Z,100.00
2022-12-04T03:08:46.292Z,100.00
2022-12-04T03:11:13.713Z,100.00
2022-12-04T03:13:50.934Z,100.00
2022-12-04T03:16:31.575Z,100.00
2022-12-04T03:19:19.051Z,100.00
2022-12-04T03:21:53.595Z,100.00
2022-12-04T03:24:27.295Z,100.00
2022-12-04T03:27:04.620Z,100.00
2022-12-04T03:29:46.308Z,100.00
2022-12-04T03:32:18.010Z,100.00
2022-12-04T03:34:55.679Z,100.00
2022-12-04T03:37:52.742Z,100.00
2022-12-04T03:40:39.181Z,100.00
2022-12-04T03:43:52.436Z,100.00
2022-12-04T03:46:30.240Z,100.00
2022-12-04T03:49:02.865Z,100.00
2022-12-04T03:51:40.400Z,100.00
2022-12-04T03:54:42.453Z,100.00
2022-12-04T03:57:15.088Z,100.00
2022-12-04T04:00:00.846Z,100.00
2022-12-04T04:02:33.062Z,100.00
2022-12-04T04:05:01.017Z,100.00
2022-12-04T04:07:48.288Z,100.00
2022-12-04T04:10:19.498Z,100.00
2022-12-04T04:13:11.706Z,100.00
2022-12-04T04:16:03.743Z,100.00
2022-12-04T04:18:51.029Z,100.00
2022-12-04T04:21:41.155Z,100.00
2022-12-04T04:24:14.804Z,100.00
2022-12-04T04:26:49.705Z,100.00
2022-12-04T04:29:16.965Z,100.00
2022-12-04T04:31:53.213Z,100.00
2022-12-04T04:34:31.457Z,100.00
2022-12-04T04:37:11.285Z,100.00
2022-12-04T04:39:53.571Z,100.00
2022-12-04T04:42:43.675Z,100.00
2022-12-04T04:45:33.105Z,100.00
2022-12-04T04:48:10.822Z,100.00
2022-12-04T04:50:39.061Z,100.00
2022-12-04T04:53:10.057Z,100.00
2022-12-04T04:55:37.635Z,100.00
2022-12-04T04:58:14.181Z,100.00
2022-12-04T05:00:44.930Z,100.00
2022-12-04T05:03:12.235Z,100.00
2022-12-04T05:05:39.714Z,100.00
2022-12-04T05:08:06.955Z,100.00
2022-12-04T05:10:34.270Z,100.00
2022-12-04T05:13:01.494Z,100.00
2022-12-04T05:15:28.714Z,100.00
2022-12-04T05:17:55.948Z,100.00
2022-12-04T05:20:23.184Z,100.00
2022-12-04T05:22:50.442Z,100.00
2022-12-04T05:25:17.755Z,100.00
2022-12-04T05:27:45.155Z,100.00
2022-12-04T05:30:12.587Z,100.00
2022-12-04T05:32:39.961Z,100.00
2022-12-04T05:35:11.105Z,100.00
2022-12-04T05:37:40.068Z,100.00
2022-12-04T05:40:08.432Z,100.00
2022-12-04T05:42:35.693Z,100.00
2022-12-04T05:45:03.058Z,100.00
2022-12-04T05:47:30.340Z,100.00
2022-12-04T05:49:58.544Z,100.00
2022-12-04T05:52:25.912Z,100.00
2022-12-04T05:54:53.135Z,100.00
2022-12-04T05:57:21.634Z,100.00
2022-12-04T05:59:51.582Z,100.00
2022-12-04T06:02:19.281Z,100.00
2022-12-04T06:04:47.091Z,100.00
2022-12-04T06:07:14.494Z,100.00
2022-12-04T06:09:41.718Z,100.00
2022-12-04T06:12:08.970Z,100.00
2022-12-04T06:14:39.516Z,100.00
2022-12-04T06:17:07.654Z,100.00
2022-12-04T06:19:34.966Z,100.00
2022-12-04T06:22:02.243Z,100.00
2022-12-04T06:24:29.501Z,100.00
2022-12-04T06:27:26.326Z,100.00
2022-12-04T06:29:45.239Z,100.00
2022-12-04T06:32:17.787Z,100.00
2022-12-04T06:34:51.582Z,100.00
2022-12-04T06:37:18.870Z,100.00
2022-12-04T06:39:46.186Z,100.00
2022-12-04T06:42:13.449Z,100.00
2022-12-04T06:44:40.846Z,100.00
2022-12-04T06:47:09.130Z,100.00
2022-12-04T06:49:36.502Z,100.00
2022-12-04T06:52:03.859Z,100.00
2022-12-04T06:54:31.173Z,100.00
2022-12-04T06:56:58.465Z,100.00
2022-12-04T06:59:25.819Z,100.00
2022-12-04T07:01:53.169Z,100.00
2022-12-04T07:04:20.610Z,100.00
2022-12-04T07:06:47.831Z,100.00
2022-12-04T07:09:17.117Z,100.00
2022-12-04T07:11:45.158Z,100.00
2022-12-04T07:14:13.386Z,100.00
2022-12-04T07:16:42.474Z,100.00
2022-12-04T07:19:10.638Z,100.00
2022-12-04T07:21:37.975Z,100.00
2022-12-04T07:24:05.290Z,100.00
2022-12-04T07:26:32.616Z,100.00
2022-12-04T07:29:00.267Z,100.00
2022-12-04T07:31:29.404Z,100.00
2022-12-04T07:33:57.560Z,100.00
2022-12-04T07:36:25.746Z,100.00
2022-12-04T07:38:54.319Z,100.00
2022-12-04T07:41:21.627Z,100.00
2022-12-04T07:43:49.158Z,100.00
2022-12-04T07:46:22.262Z,100.00
2022-12-04T07:48:49.668Z,100.00
2022-12-04T07:51:21.949Z,100.00
2022-12-04T07:53:49.955Z,100.00
2022-12-04T07:56:17.777Z,100.00
2022-12-04T07:58:45.222Z,100.00
2022-12-04T08:01:15.050Z,100.00
2022-12-04T08:03:48.199Z,100.00
2022-12-04T08:06:17.473Z,100.00
2022-12-04T08:08:45.083Z,100.00
2022-12-04T08:11:15.594Z,100.00
2022-12-04T08:13:43.093Z,100.00
2022-12-04T08:16:11.974Z,100.00
2022-12-04T08:18:40.061Z,100.00
2022-12-04T08:21:12.157Z,100.00
2022-12-04T08:23:40.513Z,100.00
2022-12-04T08:26:08.667Z,100.00
2022-12-04T08:28:36.545Z,100.00
2022-12-04T08:31:10.267Z,100.00
2022-12-04T08:33:37.682Z,100.00
2022-12-04T08:36:10.040Z,100.00
2022-12-04T08:38:37.614Z,100.00
2022-12-04T08:41:07.019Z,100.00
2022-12-04T08:43:34.212Z,100.00
2022-12-04T08:46:10.337Z,100.00
2022-12-04T08:48:38.007Z,100.00
2022-12-04T08:51:08.108Z,100.00
2022-12-04T08:53:39.009Z,100.00
2022-12-04T08:56:06.565Z,100.00
2022-12-04T08:58:33.838Z,100.00
2022-12-04T09:01:08.945Z,100.00
2022-12-04T09:03:36.422Z,100.00
2022-12-04T09:06:05.058Z,100.00
2022-12-04T09:08:33.887Z,100.00
2022-12-04T09:11:21.067Z,100.00
2022-12-04T09:13:48.701Z,100.00
2022-12-04T09:16:21.699Z,100.00
2022-12-04T09:18:49.378Z,100.00
2022-12-04T09:21:18.479Z,100.00
2022-12-04T09:23:46.033Z,100.00
2022-12-04T09:26:28.345Z,100.00
2022-12-04T09:28:57.926Z,100.00
2022-12-04T09:31:26.381Z,100.00
2022-12-04T09:33:53.816Z,100.00
2022-12-04T09:36:21.307Z,100.00
2022-12-04T09:38:51.028Z,100.00
2022-12-04T09:41:27.249Z,100.00
2022-12-04T09:44:06.989Z,100.00
2022-12-04T09:46:37.422Z,100.00
2022-12-04T09:49:13.765Z,100.00
2022-12-04T09:51:41.911Z,100.00
2022-12-04T09:54:18.120Z,100.00
2022-12-04T09:56:53.722Z,100.00
2022-12-04T09:59:26.470Z,100.00
2022-12-04T10:02:03.878Z,100.00
2022-12-04T10:04:31.135Z,100.00
2022-12-04T10:07:09.334Z,100.00
2022-12-04T10:09:58.968Z,100.00
2022-12-04T10:12:37.828Z,100.00
2022-12-04T10:15:17.273Z,100.00
2022-12-04T10:18:13.715Z,100.00
2022-12-04T10:21:35.736Z,100.00
2022-12-04T10:24:24.215Z,100.00
2022-12-04T10:26:52.336Z,100.00
2022-12-04T10:29:33.377Z,100.00
2022-12-04T10:32:14.260Z,100.00
2022-12-04T10:34:45.626Z,100.00
2022-12-04T10:37:15.538Z,100.00
2022-12-04T10:39:50.308Z,100.00
2022-12-04T10:42:28.538Z,100.00
2022-12-04T10:44:56.316Z,100.00
2022-12-04T10:47:24.875Z,100.00
2022-12-04T10:50:13.576Z,100.00
2022-12-04T10:52:40.811Z,100.00
2022-12-04T10:55:10.979Z,100.00
2022-12-04T10:57:40.666Z,100.00
2022-12-04T11:00:29.794Z,100.00
2022-12-04T11:02:59.798Z,100.00
2022-12-04T11:05:29.959Z,100.00
2022-12-04T11:07:58.225Z,100.00
2022-12-04T11:10:43.366Z,100.00
2022-12-04T11:13:17.834Z,100.00
2022-12-04T11:15:53.196Z,100.00
2022-12-04T11:18:25.081Z,100.00
2022-12-04T11:20:55.398Z,100.00
2022-12-04T11:23:23.349Z,100.00
2022-12-04T11:25:52.810Z,100.00
2022-12-04T11:28:40.516Z,100.00
2022-12-04T11:31:10.896Z,100.00
2022-12-04T11:33:50.280Z,100.00
2022-12-04T11:36:24.652Z,100.00
2022-12-04T11:38:55.011Z,100.00
2022-12-04T11:41:28.597Z,100.00
2022-12-04T11:43:59.971Z,100.00
2022-12-04T11:46:32.378Z,100.00
2022-12-04T11:49:02.465Z,100.00
2022-12-04T11:51:38.755Z,100.00
2022-12-04T11:54:18.724Z,100.00
2022-12-04T11:57:12.713Z,100.00
2022-12-04T12:00:18.706Z,100.00
2022-12-04T12:03:11.078Z,100.00
2022-12-04T12:05:58.371Z,100.00
2022-12-04T12:08:39.377Z,100.00
2022-12-04T12:11:34.912Z,100.00
2022-12-04T12:14:08.726Z,100.00
2022-12-04T12:16:41.477Z,100.00
2022-12-04T12:19:39.597Z,100.00
2022-12-04T12:22:41.051Z,100.00
2022-12-04T12:25:24.228Z,100.00
2022-12-04T12:28:06.526Z,100.00
2022-12-04T12:30:47.344Z,100.00
2022-12-04T12:33:24.040Z,100.00
2022-12-04T12:35:56.483Z,100.00
2022-12-04T12:38:28.326Z,100.00
2022-12-04T12:41:06.155Z,100.00
2022-12-04T12:43:41.123Z,100.00
2022-12-04T12:46:30.107Z,100.00
2022-12-04T12:49:27.862Z,100.00
2022-12-04T12:52:09.582Z,100.00
2022-12-04T12:55:13.129Z,100.00
2022-12-04T12:57:43.586Z,100.00
2022-12-04T13:00:16.046Z,100.00
2022-12-04T13:03:05.385Z,100.00
2022-12-04T13:05:43.739Z,100.00
2022-12-04T13:08:26.281Z,100.00
2022-12-04T13:11:12.204Z,100.00
2022-12-04T13:13:49.645Z,100.00
2022-12-04T13:16:22.091Z,100.00
2022-12-04T13:19:05.842Z,100.00
2022-12-04T13:22:01.537Z,100.00
2022-12-04T13:24:37.561Z,100.00
2022-12-04T13:27:31.999Z,100.00
2022-12-04T13:30:24.208Z,100.00
2022-12-04T13:33:16.036Z,100.00
2022-12-04T13:36:08.509Z,100.00
2022-12-04T13:38:58.635Z,100.00
2022-12-04T13:41:29.385Z,100.00
2022-12-04T13:43:59.712Z,100.00
2022-12-04T13:46:39.597Z,100.00
2022-12-04T13:49:22.105Z,100.00
2022-12-04T13:51:50.082Z,100.00
2022-12-04T13:54:17.292Z,100.00
2022-12-04T13:56:46.777Z,100.00
2022-12-04T13:59:32.226Z,100.00
2022-12-04T14:02:07.747Z,100.00
2022-12-04T14:04:48.007Z,100.00
2022-12-04T14:07:34.036Z,100.00
2022-12-04T14:10:08.282Z,100.00
2022-12-04T14:12:40.768Z,100.00
2022-12-04T14:15:18.705Z,100.00
2022-12-04T14:18:02.142Z,100.00
2022-12-04T14:20:34.112Z,100.00
2022-12-04T14:23:18.006Z,100.00
2022-12-04T14:25:45.244Z,100.00
2022-12-04T14:28:41.660Z,100.00
2022-12-04T14:31:19.570Z,100.00
2022-12-04T14:34:17.698Z,100.00
2022-12-04T14:36:46.796Z,100.00
2022-12-04T14:39:33.240Z,100.00
2022-12-04T14:42:14.414Z,100.00
2022-12-04T14:44:42.025Z,100.00
2022-12-04T14:47:15.220Z,100.00
2022-12-04T14:50:02.530Z,100.00
2022-12-04T14:52:47.723Z,100.00
2022-12-04T14:55:25.810Z,100.00
2022-12-04T14:58:24.932Z,100.00
2022-12-04T15:00:54.101Z,100.00
2022-12-04T15:03:21.951Z,100.00
2022-12-04T15:05:51.462Z,100.00
2022-12-04T15:08:20.868Z,100.00
2022-12-04T15:11:10.426Z,100.00
2022-12-04T15:13:39.166Z,100.00
2022-12-04T15:16:23.575Z,100.00
2022-12-04T15:18:59.951Z,100.00
2022-12-04T15:21:40.307Z,100.00
2022-12-04T15:24:24.309Z,100.00
2022-12-04T15:26:53.707Z,100.00
2022-12-04T15:29:21.892Z,100.00
2022-12-04T15:31:56.897Z,100.00
2022-12-04T15:34:38.205Z,100.00
2022-12-04T15:37:09.240Z,100.00
2022-12-04T15:39:38.005Z,100.00
2022-12-04T15:42:16.753Z,100.00
2022-12-04T15:45:21.701Z,100.00
2022-12-04T15:47:48.840Z,100.00
2022-12-04T15:50:16.144Z,100.00
2022-12-04T15:53:07.224Z,100.00
2022-12-04T15:55:46.979Z,100.00
2022-12-04T15:58:27.766Z,100.00
2022-12-04T16:00:57.241Z,100.00
2022-12-04T16:03:36.317Z,100.00
2022-12-04T16:06:24.003Z,100.00
2022-12-04T16:08:56.383Z,100.00
2022-12-04T16:11:39.142Z,100.00
2022-12-04T16:14:16.134Z,100.00
2022-12-04T16:16:46.267Z,100.00
2022-12-04T16:19:35.548Z,100.00
2022-12-04T16:22:03.760Z,100.00
2022-12-04T16:24:31.071Z,100.00
2022-12-04T16:27:00.233Z,100.00
2022-12-04T16:29:27.659Z,100.00
2022-12-04T16:32:01.239Z,100.00
2022-12-04T16:34:30.598Z,100.00
2022-12-04T16:36:58.104Z,100.00
2022-12-04T16:39:25.508Z,100.00
2022-12-04T16:41:54.028Z,100.00
2022-12-04T16:44:21.416Z,100.00
2022-12-04T16:46:51.811Z,100.00
2022-12-04T16:49:19.281Z,100.00
2022-12-04T16:51:49.878Z,100.00
2022-12-04T16:54:17.291Z,100.00
2022-12-04T16:56:44.747Z,100.00
2022-12-04T16:59:13.165Z,100.00
2022-12-04T17:01:48.439Z,100.00
2022-12-04T17:04:17.035Z,100.00
2022-12-04T17:06:44.978Z,100.00
2022-12-04T17:09:13.375Z,100.00
2022-12-04T17:11:41.059Z,100.00
2022-12-04T17:14:08.503Z,100.00
2022-12-04T17:16:37.211Z,100.00
2022-12-04T17:19:05.078Z,100.00
2022-12-04T17:21:32.378Z,100.00
2022-12-04T17:23:59.919Z,100.00
2022-12-04T17:26:27.840Z,100.00
2022-12-04T17:28:55.266Z,100.00
2022-12-04T17:31:24.920Z,100.00
2022-12-04T17:33:52.532Z,100.00
2022-12-04T17:36:22.525Z,100.00
2022-12-04T17:38:54.311Z,100.00
2022-12-04T17:41:21.784Z,100.00
2022-12-04T17:43:49.226Z,100.00
2022-12-04T17:46:20.494Z,100.00
2022-12-04T17:48:48.435Z,100.00
2022-12-04T17:51:19.707Z,100.00
2022-12-04T17:53:47.624Z,100.00
2022-12-04T17:56:17.688Z,100.00
2022-12-04T17:58:46.042Z,100.00
2022-12-04T18:01:18.864Z,100.00
2022-12-04T18:03:57.530Z,100.00
2022-12-04T18:06:37.613Z,100.00
2022-12-04T18:09:06.846Z,100.00
2022-12-04T18:11:39.406Z,100.00
2022-12-04T18:14:12.618Z,100.00
2022-12-04T18:16:46.002Z,100.00
2022-12-04T18:19:14.457Z,100.00
2022-12-04T18:21:42.101Z,100.00
2022-12-04T18:24:09.786Z,100.00
2022-12-04T18:26:42.150Z,100.00
2022-12-04T18:29:11.010Z,100.00
2022-12-04T18:31:38.423Z,100.00
2022-12-04T18:34:06.916Z,100.00
2022-12-04T18:36:35.683Z,100.00
2022-12-04T18:39:06.316Z,100.00
2022-12-04T18:41:33.659Z,100.00
2022-12-04T18:44:01.053Z,100.00
2022-12-04T18:46:28.372Z,100.00
2022-12-04T18:48:58.937Z,100.00
2022-12-04T18:51:33.064Z,100.00
2022-12-04T18:54:11.027Z,100.00
2022-12-04T18:56:38.395Z,100.00
2022-12-04T18:59:12.902Z,100.00
2022-12-04T19:01:41.522Z,100.00
2022-12-04T19:04:10.829Z,100.00
2022-12-04T19:06:42.396Z,100.00
2022-12-04T19:09:13.895Z,100.00
2022-12-04T19:11:41.644Z,100.00
2022-12-04T19:14:17.677Z,100.00
2022-12-04T19:16:50.174Z,100.00
2022-12-04T19:19:17.811Z,100.00
2022-12-04T19:21:45.356Z,100.00
2022-12-04T19:24:13.700Z,100.00
2022-12-04T19:26:41.247Z,100.00
2022-12-04T19:29:12.976Z,100.00
2022-12-04T19:31:41.752Z,100.00
2022-12-04T19:34:09.159Z,100.00
2022-12-04T19:36:36.606Z,100.00
2022-12-04T19:39:05.227Z,100.00
2022-12-04T19:41:37.428Z,100.00
2022-12-04T19:44:20.020Z,100.00
2022-12-04T19:46:52.259Z,100.00
2022-12-04T19:49:19.689Z,100.00
2022-12-04T19:51:47.786Z,100.00
2022-12-04T19:54:15.987Z,100.00
2022-12-04T19:56:46.211Z,100.00
2022-12-04T19:59:13.849Z,100.00
2022-12-04T20:01:41.218Z,100.00
2022-12-04T20:04:09.229Z,100.00
2022-12-04T20:06:45.159Z,100.00
2022-12-04T20:09:15.778Z,100.00
2022-12-04T20:11:43.310Z,100.00
2022-12-04T20:14:10.891Z,100.00
2022-12-04T20:16:38.680Z,100.00
2022-12-04T20:19:08.051Z,100.00
2022-12-04T20:21:35.551Z,100.00
2022-12-04T20:24:05.666Z,100.00
2022-12-04T20:26:38.356Z,100.00
2022-12-04T20:29:07.331Z,100.00
2022-12-04T20:31:36.475Z,100.00
2022-12-04T20:34:06.086Z,100.00
2022-12-04T20:36:37.811Z,100.00
2022-12-04T20:39:05.884Z,100.00
2022-12-04T20:41:33.635Z,100.00
2022-12-04T20:44:03.446Z,100.00
2022-12-04T20:46:33.727Z,100.00
2022-12-04T20:49:02.535Z,100.00
2022-12-04T20:51:32.708Z,100.00
2022-12-04T20:54:02.228Z,100.00
2022-12-04T20:59:20.292Z,100.00
2022-12-04T21:01:49.321Z,100.00
2022-12-04T21:04:24.797Z,100.00
2022-12-04T21:06:52.254Z,100.00
2022-12-04T21:09:22.410Z,100.00
2022-12-04T21:11:54.177Z,100.00
2022-12-04T21:14:47.084Z,100.00
2022-12-04T21:17:18.878Z,100.00
2022-12-04T21:19:49.751Z,100.00
2022-12-04T21:22:19.318Z,100.00
2022-12-04T21:24:46.647Z,100.00
2022-12-04T21:29:56.265Z,100.00
2022-12-04T21:32:23.796Z,100.00
2022-12-04T21:34:52.007Z,100.00
2022-12-04T21:37:19.431Z,100.00
2022-12-04T21:39:55.425Z,100.00
2022-12-04T21:42:34.440Z,100.00
2022-12-04T21:45:04.357Z,100.00
2022-12-04T21:47:33.013Z,100.00
2022-12-04T21:50:00.636Z,100.00
2022-12-04T21:52:28.716Z,100.00
2022-12-04T21:54:56.172Z,100.00
2022-12-04T21:57:29.292Z,100.00
2022-12-04T21:59:56.984Z,100.00
2022-12-04T22:02:26.765Z,100.00
2022-12-04T22:04:54.419Z,100.00
2022-12-04T22:07:21.870Z,100.00
2022-12-04T22:09:50.166Z,100.00
2022-12-04T22:12:47.821Z,100.00
2022-12-04T22:15:14.190Z,100.00
2022-12-04T22:17:43.564Z,100.00
2022-12-04T22:20:11.270Z,100.00
2022-12-04T22:22:38.625Z,100.00
2022-12-04T22:25:06.164Z,100.00
2022-12-04T22:27:34.542Z,100.00
2022-12-04T22:30:02.392Z,100.00
2022-12-04T22:32:29.856Z,100.00
2022-12-04T22:34:57.124Z,100.00
2022-12-04T22:37:25.341Z,100.00
2022-12-04T22:39:52.558Z,100.00
2022-12-04T22:42:19.811Z,100.00
2022-12-04T22:44:47.054Z,100.00
2022-12-04T22:47:14.311Z,100.00
2022-12-04T22:49:41.640Z,100.00
2022-12-04T22:52:08.975Z,100.00
2022-12-04T22:54:36.289Z,100.00
2022-12-04T22:57:03.948Z,100.00
2022-12-04T22:59:31.352Z,100.00
2022-12-04T23:02:00.311Z,100.00
2022-12-04T23:04:29.388Z,100.00
2022-12-04T23:06:57.718Z,100.00
2022-12-04T23:09:26.164Z,100.00
2022-12-04T23:11:54.508Z,100.00
2022-12-04T23:14:22.122Z,100.00
2022-12-04T23:16:49.785Z,100.00
2022-12-04T23:19:19.034Z,100.00
2022-12-04T23:21:49.679Z,100.00
2022-12-04T23:24:21.054Z,100.00
2022-12-04T23:26:48.723Z,100.00
2022-12-04T23:29:44.809Z,100.00
2022-12-04T23:32:03.828Z,100.00
2022-12-04T23:34:31.174Z,100.00
2022-12-04T23:36:58.458Z,100.00
2022-12-04T23:39:25.703Z,100.00
2022-12-04T23:41:52.968Z,100.00
2022-12-04T23:44:20.318Z,100.00
2022-12-04T23:46:48.879Z,100.00
2022-12-04T23:49:16.165Z,100.00
2022-12-04T23:51:43.433Z,100.00
2022-12-04T23:54:10.803Z,100.00
2022-12-04T23:56:38.259Z,100.00
2022-12-04T23:59:05.785Z,100.00
